Time,TemperatureF,DewpointF,PressureIn,WindDirection,WindDirectionDegrees,WindSpeedMPH,WindSpeedGustMPH,Humidity,HourlyPrecipIn,Conditions,Clouds,dailyrainin,SoftwareType,DateUTC
2013-01-05 00:00:00,27.4,23.8,30.24,North,360,0.0,0.0,86,0.00,,,0.00,Wunderground v.1.13,2013-01-05 05:00:00,
2013-01-05 00:01:00,27.4,23.8,30.24,North,360,0.0,0.0,86,0.00,,,0.00,Wunderground v.1.13,2013-01-05 05:01:00,
2013-01-05 00:03:00,27.3,23.7,30.24,North,32767,0.0,0.0,86,0.00,,,0.00,Wunderground v.1.13,2013-01-05 05:03:00,
2013-01-05 00:06:00,27.2,23.6,30.24,North,360,0.0,0.0,86,0.00,,,0.00,Wunderground v.1.13,2013-01-05 05:06:00,
2013-01-05 00:12:00,27.1,23.5,30.24,North,32767,0.0,0.0,86,0.00,,,0.00,Wunderground v.1.13,2013-01-05 05:12:00,
2013-01-05 00:18:00,27.0,23.4,30.24,North,32767,0.0,0.0,86,0.00,,,0.00,Wunderground v.1.13,2013-01-05 05:18:00,
2013-01-05 00:24:00,26.9,23.3,30.24,North,360,0.0,0.0,86,0.00,,,0.00,Wunderground v.1.13,2013-01-05 05:24:00,
2013-01-05 00:30:00,26.8,23.4,30.24,North,360,0.0,0.0,87,0.00,,,0.00,Wunderground v.1.13,2013-01-05 05:30:00,
2013-01-05 00:35:00,26.8,23.4,30.24,North,360,0.0,0.0,87,0.00,,,0.00,Wunderground v.1.13,2013-01-05 05:35:00,
2013-01-05 00:41:00,26.8,23.4,30.24,North,360,0.0,0.0,87,0.00,,,0.00,Wunderground v.1.13,2013-01-05 05:41:00,
2013-01-05 00:47:00,26.8,23.4,30.24,North,360,0.0,0.0,87,0.00,,,0.00,Wunderground v.1.13,2013-01-05 05:47:00,
2013-01-05 00:53:00,26.7,23.4,30.24,North,32767,0.0,0.0,87,0.00,,,0.00,Wunderground v.1.13,2013-01-05 05:53:00,
2013-01-05 00:59:00,26.6,23.3,30.24,North,32767,0.0,0.0,87,0.00,,,0.00,Wunderground v.1.13,2013-01-05 05:59:00,
2013-01-05 01:05:00,26.7,23.4,30.24,North,360,0.0,0.0,87,0.00,,,0.00,Wunderground v.1.13,2013-01-05 06:05:00,
2013-01-05 01:10:00,26.7,23.4,30.24,North,32767,0.0,0.0,87,0.00,,,0.00,Wunderground v.1.13,2013-01-05 06:10:00,
2013-01-05 01:15:00,26.7,23.4,30.24,North,360,0.0,0.0,87,0.00,,,0.00,Wunderground v.1.13,2013-01-05 06:15:00,
2013-01-05 01:21:00,26.7,23.6,30.24,North,360,0.0,0.0,88,0.00,,,0.00,Wunderground v.1.13,2013-01-05 06:21:00,
2013-01-05 01:27:00,26.8,23.7,30.24,North,360,0.0,0.0,88,0.00,,,0.00,Wunderground v.1.13,2013-01-05 06:27:00,
2013-01-05 01:32:00,26.8,23.7,30.25,North,360,0.0,0.0,88,0.00,,,0.00,Wunderground v.1.13,2013-01-05 06:32:00,
2013-01-05 01:38:00,26.7,23.6,30.25,North,32767,0.0,0.0,88,0.00,,,0.00,Wunderground v.1.13,2013-01-05 06:38:00,
2013-01-05 01:43:00,26.7,23.6,30.25,North,32767,0.0,0.0,88,0.00,,,0.00,Wunderground v.1.13,2013-01-05 06:43:00,
2013-01-05 01:49:00,26.8,23.7,30.25,North,360,0.0,0.0,88,0.00,,,0.00,Wunderground v.1.13,2013-01-05 06:49:00,
2013-01-05 01:55:00,26.8,23.7,30.25,North,360,0.0,0.0,88,0.00,,,0.00,Wunderground v.1.13,2013-01-05 06:55:00,
2013-01-05 02:00:00,26.9,23.8,30.25,North,32767,0.0,0.0,88,0.00,,,0.00,Wunderground v.1.13,2013-01-05 07:00:00,
2013-01-05 02:05:00,26.9,23.8,30.25,North,32767,0.0,0.0,88,0.00,,,0.00,Wunderground v.1.13,2013-01-05 07:05:00,
2013-01-05 02:11:00,27.0,23.9,30.25,North,32767,0.0,0.0,88,0.00,,,0.00,Wunderground v.1.13,2013-01-05 07:11:00,
2013-01-05 02:17:00,27.2,24.1,30.26,North,360,0.0,0.0,88,0.00,,,0.00,Wunderground v.1.13,2013-01-05 07:17:00,
2013-01-05 02:23:00,27.3,24.2,30.26,North,32767,0.0,0.0,88,0.00,,,0.00,Wunderground v.1.13,2013-01-05 07:23:00,
2013-01-05 02:28:00,27.4,24.3,30.27,North,32767,0.0,0.0,88,0.00,,,0.00,Wunderground v.1.13,2013-01-05 07:28:00,
2013-01-05 02:34:00,27.5,24.4,30.27,North,32767,0.0,0.0,88,0.00,,,0.00,Wunderground v.1.13,2013-01-05 07:34:00,
2013-01-05 02:40:00,27.5,24.4,30.27,North,32767,0.0,0.0,88,0.00,,,0.00,Wunderground v.1.13,2013-01-05 07:40:00,
2013-01-05 02:45:00,27.5,24.4,30.26,North,360,0.0,0.0,88,0.00,,,0.00,Wunderground v.1.13,2013-01-05 07:45:00,
2013-01-05 02:51:00,27.5,24.4,30.26,North,32767,0.0,0.0,88,0.00,,,0.00,Wunderground v.1.13,2013-01-05 07:51:00,
2013-01-05 02:57:00,27.2,24.1,30.26,North,32767,0.0,0.0,88,0.00,,,0.00,Wunderground v.1.13,2013-01-05 07:57:00,
2013-01-05 03:03:00,27.0,23.9,30.26,North,360,0.0,0.0,88,0.00,,,0.00,Wunderground v.1.13,2013-01-05 08:03:00,
2013-01-05 03:08:00,26.8,23.7,30.26,North,32767,0.0,0.0,88,0.00,,,0.00,Wunderground v.1.13,2013-01-05 08:08:00,
2013-01-05 03:13:00,26.6,23.5,30.25,North,360,0.0,0.0,88,0.00,,,0.00,Wunderground v.1.13,2013-01-05 08:13:00,
2013-01-05 03:19:00,26.3,23.2,30.25,North,360,0.0,0.0,88,0.00,,,0.00,Wunderground v.1.13,2013-01-05 08:19:00,
2013-01-05 03:25:00,26.1,23.0,30.25,North,360,0.0,0.0,88,0.00,,,0.00,Wunderground v.1.13,2013-01-05 08:25:00,
2013-01-05 03:30:00,25.9,22.8,30.25,North,360,0.0,0.0,88,0.00,,,0.00,Wunderground v.1.13,2013-01-05 08:30:00,
2013-01-05 03:36:00,25.5,22.7,30.25,North,32767,0.0,0.0,89,0.00,,,0.00,Wunderground v.1.13,2013-01-05 08:36:00,
2013-01-05 03:41:00,25.2,22.4,30.25,North,360,0.0,0.0,89,0.00,,,0.00,Wunderground v.1.13,2013-01-05 08:41:00,
2013-01-05 03:47:00,25.2,22.4,30.27,North,32767,0.0,0.0,89,0.00,,,0.00,Wunderground v.1.13,2013-01-05 08:47:00,
2013-01-05 03:53:00,25.1,22.3,30.27,North,32767,0.0,0.0,89,0.00,,,0.00,Wunderground v.1.13,2013-01-05 08:53:00,
2013-01-05 03:58:00,25.0,22.5,30.27,North,32767,0.0,0.0,90,0.00,,,0.00,Wunderground v.1.13,2013-01-05 08:58:00,
2013-01-05 04:04:00,24.9,22.4,30.27,North,32767,0.0,0.0,90,0.00,,,0.00,Wunderground v.1.13,2013-01-05 09:04:00,
2013-01-05 04:10:00,24.9,22.4,30.27,North,32767,0.0,0.0,90,0.00,,,0.00,Wunderground v.1.13,2013-01-05 09:10:00,
2013-01-05 04:15:00,24.8,22.3,30.26,North,32767,0.0,0.0,90,0.00,,,0.00,Wunderground v.1.13,2013-01-05 09:15:00,
2013-01-05 04:21:00,24.6,22.1,30.26,North,32767,0.0,0.0,90,0.00,,,0.00,Wunderground v.1.13,2013-01-05 09:21:00,
2013-01-05 04:27:00,24.2,21.7,30.26,North,32767,0.0,0.0,90,0.00,,,0.00,Wunderground v.1.13,2013-01-05 09:27:00,
2013-01-05 04:32:00,24.1,21.6,30.27,North,32767,0.0,0.0,90,0.00,,,0.00,Wunderground v.1.13,2013-01-05 09:32:00,
2013-01-05 04:38:00,23.9,21.7,30.27,North,32767,0.0,0.0,91,0.00,,,0.00,Wunderground v.1.13,2013-01-05 09:38:00,
2013-01-05 04:44:00,23.8,21.6,30.27,North,32767,0.0,0.0,91,0.00,,,0.00,Wunderground v.1.13,2013-01-05 09:44:00,
2013-01-05 04:50:00,23.7,21.5,30.27,North,32767,0.0,0.0,91,0.00,,,0.00,Wunderground v.1.13,2013-01-05 09:50:00,
2013-01-05 04:56:00,23.8,21.6,30.27,North,32767,0.0,0.0,91,0.00,,,0.00,Wunderground v.1.13,2013-01-05 09:56:00,
2013-01-05 05:01:00,23.8,21.6,30.27,North,360,0.0,0.0,91,0.00,,,0.00,Wunderground v.1.13,2013-01-05 10:01:00,
2013-01-05 05:07:00,23.8,21.6,30.27,North,32767,0.0,0.0,91,0.00,,,0.00,Wunderground v.1.13,2013-01-05 10:07:00,
2013-01-05 05:12:00,23.7,21.5,30.27,North,32767,0.0,0.0,91,0.00,,,0.00,Wunderground v.1.13,2013-01-05 10:12:00,
2013-01-05 05:18:00,23.5,21.3,30.27,North,32767,0.0,0.0,91,0.00,,,0.00,Wunderground v.1.13,2013-01-05 10:18:00,
2013-01-05 05:24:00,23.4,21.2,30.27,North,32767,0.0,0.0,91,0.00,,,0.00,Wunderground v.1.13,2013-01-05 10:24:00,
2013-01-05 05:29:00,23.4,21.2,30.28,North,32767,0.0,0.0,91,0.00,,,0.00,Wunderground v.1.13,2013-01-05 10:29:00,
2013-01-05 05:35:00,23.4,21.4,30.28,North,360,0.0,0.0,92,0.00,,,0.00,Wunderground v.1.13,2013-01-05 10:35:00,
2013-01-05 05:41:00,23.4,21.4,30.28,North,32767,0.0,0.0,92,0.00,,,0.00,Wunderground v.1.13,2013-01-05 10:41:00,
2013-01-05 05:47:00,23.6,21.6,30.28,North,32767,0.0,0.0,92,0.00,,,0.00,Wunderground v.1.13,2013-01-05 10:47:00,
2013-01-05 05:53:00,23.7,21.5,30.28,North,32767,0.0,0.0,91,0.00,,,0.00,Wunderground v.1.13,2013-01-05 10:53:00,
2013-01-05 05:58:00,23.8,21.6,30.27,North,360,0.0,0.0,91,0.00,,,0.00,Wunderground v.1.13,2013-01-05 10:58:00,
2013-01-05 06:04:00,23.9,21.7,30.27,North,32767,0.0,0.0,91,0.00,,,0.00,Wunderground v.1.13,2013-01-05 11:04:00,
2013-01-05 06:10:00,24.0,21.8,30.27,North,32767,0.0,0.0,91,0.00,,,0.00,Wunderground v.1.13,2013-01-05 11:10:00,
2013-01-05 06:16:00,24.1,21.9,30.27,North,360,0.0,0.0,91,0.00,,,0.00,Wunderground v.1.13,2013-01-05 11:16:00,
2013-01-05 06:22:00,24.1,21.9,30.27,North,32767,0.0,0.0,91,0.00,,,0.00,Wunderground v.1.13,2013-01-05 11:22:00,
2013-01-05 06:27:00,24.1,21.9,30.27,North,32767,0.0,0.0,91,0.00,,,0.00,Wunderground v.1.13,2013-01-05 11:27:00,
2013-01-05 06:33:00,24.1,21.9,30.27,North,32767,0.0,0.0,91,0.00,,,0.00,Wunderground v.1.13,2013-01-05 11:33:00,
2013-01-05 06:39:00,24.0,21.8,30.27,North,32767,0.0,0.0,91,0.00,,,0.00,Wunderground v.1.13,2013-01-05 11:39:00,
2013-01-05 06:45:00,23.9,21.7,30.27,North,32767,0.0,0.0,91,0.00,,,0.00,Wunderground v.1.13,2013-01-05 11:45:00,
2013-01-05 06:50:00,23.9,21.7,30.27,North,32767,0.0,0.0,91,0.00,,,0.00,Wunderground v.1.13,2013-01-05 11:50:00,
2013-01-05 06:56:00,23.8,21.6,30.27,North,360,0.0,0.0,91,0.00,,,0.00,Wunderground v.1.13,2013-01-05 11:56:00,
2013-01-05 07:02:00,23.7,21.5,30.27,North,360,0.0,0.0,91,0.00,,,0.00,Wunderground v.1.13,2013-01-05 12:02:00,
2013-01-05 07:07:00,23.7,21.5,30.27,North,360,0.0,0.0,91,0.00,,,0.00,Wunderground v.1.13,2013-01-05 12:07:00,
2013-01-05 07:13:00,23.6,21.4,30.26,North,360,0.0,0.0,91,0.00,,,0.00,Wunderground v.1.13,2013-01-05 12:13:00,
2013-01-05 07:19:00,23.5,21.3,30.26,North,360,0.0,0.0,91,0.00,,,0.00,Wunderground v.1.13,2013-01-05 12:19:00,
2013-01-05 07:24:00,23.5,21.3,30.26,North,32767,0.0,0.0,91,0.00,,,0.00,Wunderground v.1.13,2013-01-05 12:24:00,
2013-01-05 07:30:00,23.5,21.3,30.26,North,32767,0.0,0.0,91,0.00,,,0.00,Wunderground v.1.13,2013-01-05 12:30:00,
2013-01-05 07:36:00,23.5,21.3,30.26,North,32767,0.0,0.0,91,0.00,,,0.00,Wunderground v.1.13,2013-01-05 12:36:00,
2013-01-05 07:42:00,23.5,21.3,30.26,North,360,0.0,0.0,91,0.00,,,0.00,Wunderground v.1.13,2013-01-05 12:42:00,
2013-01-05 07:47:00,23.5,21.3,30.26,North,360,0.0,0.0,91,0.00,,,0.00,Wunderground v.1.13,2013-01-05 12:47:00,
2013-01-05 07:52:00,23.6,21.4,30.26,North,32767,0.0,0.0,91,0.00,,,0.00,Wunderground v.1.13,2013-01-05 12:52:00,
2013-01-05 07:57:00,23.7,21.5,30.26,North,32767,0.0,0.0,91,0.00,,,0.00,Wunderground v.1.13,2013-01-05 12:57:00,
2013-01-05 08:03:00,23.9,21.7,30.27,North,32767,0.0,0.0,91,0.00,,,0.00,Wunderground v.1.13,2013-01-05 13:03:00,
2013-01-05 08:09:00,24.0,21.8,30.27,North,360,0.0,0.0,91,0.00,,,0.00,Wunderground v.1.13,2013-01-05 13:09:00,
2013-01-05 08:14:00,24.0,21.8,30.27,North,32767,0.0,0.0,91,0.00,,,0.00,Wunderground v.1.13,2013-01-05 13:14:00,
2013-01-05 08:20:00,24.1,21.9,30.27,North,32767,0.0,0.0,91,0.00,,,0.00,Wunderground v.1.13,2013-01-05 13:20:00,
2013-01-05 08:26:00,24.1,21.9,30.27,North,32767,0.0,0.0,91,0.00,,,0.00,Wunderground v.1.13,2013-01-05 13:26:00,
2013-01-05 08:32:00,24.1,21.9,30.27,North,32767,0.0,0.0,91,0.00,,,0.00,Wunderground v.1.13,2013-01-05 13:32:00,
2013-01-05 08:37:00,24.2,22.0,30.27,North,32767,0.0,0.0,91,0.00,,,0.00,Wunderground v.1.13,2013-01-05 13:37:00,
2013-01-05 08:43:00,24.3,22.1,30.26,North,32767,0.0,0.0,91,0.00,,,0.00,Wunderground v.1.13,2013-01-05 13:43:00,
2013-01-05 08:48:00,24.4,22.2,30.26,North,32767,0.0,0.0,91,0.00,,,0.00,Wunderground v.1.13,2013-01-05 13:48:00,
2013-01-05 08:54:00,24.5,22.2,30.26,North,360,0.0,0.0,91,0.00,,,0.00,Wunderground v.1.13,2013-01-05 13:54:00,
2013-01-05 09:00:00,24.6,22.3,30.26,North,360,0.0,0.0,91,0.00,,,0.00,Wunderground v.1.13,2013-01-05 14:00:00,
2013-01-05 09:06:00,24.7,22.2,30.26,North,360,0.0,0.0,90,0.00,,,0.00,Wunderground v.1.13,2013-01-05 14:06:00,
2013-01-05 09:12:00,24.8,22.3,30.26,North,32767,0.0,0.0,90,0.00,,,0.00,Wunderground v.1.13,2013-01-05 14:12:00,
2013-01-05 09:18:00,25.0,22.5,30.26,North,360,0.0,0.0,90,0.00,,,0.00,Wunderground v.1.13,2013-01-05 14:18:00,
2013-01-05 09:23:00,25.1,22.3,30.26,North,32767,0.0,0.0,89,0.00,,,0.00,Wunderground v.1.13,2013-01-05 14:23:00,
2013-01-05 09:29:00,25.4,22.6,30.26,North,32767,0.0,0.0,89,0.00,,,0.00,Wunderground v.1.13,2013-01-05 14:29:00,
2013-01-05 09:35:00,25.8,23.0,30.26,North,360,0.0,0.0,89,0.00,,,0.00,Wunderground v.1.13,2013-01-05 14:35:00,
2013-01-05 09:41:00,26.0,22.9,30.26,North,32767,0.0,0.0,88,0.00,,,0.00,Wunderground v.1.13,2013-01-05 14:41:00,
2013-01-05 09:46:00,26.2,23.1,30.26,North,360,0.0,0.0,88,0.00,,,0.00,Wunderground v.1.13,2013-01-05 14:46:00,
2013-01-05 09:52:00,26.6,23.5,30.26,North,360,0.0,0.0,88,0.00,,,0.00,Wunderground v.1.13,2013-01-05 14:52:00,
2013-01-05 09:57:00,26.7,23.1,30.26,North,360,0.0,0.0,86,0.00,,,0.00,Wunderground v.1.13,2013-01-05 14:57:00,
2013-01-05 10:03:00,26.7,23.1,30.26,North,32767,0.0,0.0,86,0.00,,,0.00,Wunderground v.1.13,2013-01-05 15:03:00,
2013-01-05 10:08:00,26.7,22.8,30.26,North,32767,0.0,0.0,85,0.00,,,0.00,Wunderground v.1.13,2013-01-05 15:08:00,
2013-01-05 10:14:00,27.0,23.1,30.27,North,32767,0.0,0.0,85,0.00,,,0.00,Wunderground v.1.13,2013-01-05 15:14:00,
2013-01-05 10:20:00,27.4,23.2,30.27,North,32767,0.0,0.0,84,0.00,,,0.00,Wunderground v.1.13,2013-01-05 15:20:00,
2013-01-05 10:26:00,27.8,23.6,30.27,North,360,0.0,0.0,84,0.00,,,0.00,Wunderground v.1.13,2013-01-05 15:26:00,
2013-01-05 10:31:00,28.1,23.6,30.27,North,32767,0.0,0.0,83,0.00,,,0.00,Wunderground v.1.13,2013-01-05 15:31:00,
2013-01-05 10:36:00,28.3,23.8,30.27,North,360,0.0,0.0,83,0.00,,,0.00,Wunderground v.1.13,2013-01-05 15:36:00,
2013-01-05 10:41:00,28.6,23.8,30.27,North,32767,0.0,0.0,82,0.00,,,0.00,Wunderground v.1.13,2013-01-05 15:41:00,
2013-01-05 10:46:00,29.3,24.5,30.27,North,360,0.0,0.0,82,0.00,,,0.00,Wunderground v.1.13,2013-01-05 15:46:00,
2013-01-05 10:52:00,29.6,24.2,30.27,North,32767,0.0,0.0,80,0.00,,,0.00,Wunderground v.1.13,2013-01-05 15:52:00,
2013-01-05 10:57:00,30.0,24.6,30.27,North,32767,0.0,0.0,80,0.00,,,0.00,Wunderground v.1.13,2013-01-05 15:57:00,
2013-01-05 11:02:00,30.5,24.8,30.27,North,32767,0.0,0.0,79,0.00,,,0.00,Wunderground v.1.13,2013-01-05 16:02:00,
2013-01-05 11:08:00,30.7,24.7,30.27,North,360,0.0,0.0,78,0.00,,,0.01,Wunderground v.1.13,2013-01-05 16:08:00,
2013-01-05 11:14:00,31.1,25.0,30.26,North,32767,0.0,0.0,78,0.00,,,0.01,Wunderground v.1.13,2013-01-05 16:14:00,
2013-01-05 11:20:00,31.4,25.0,30.26,North,32767,0.0,0.0,77,0.00,,,0.01,Wunderground v.1.13,2013-01-05 16:20:00,
2013-01-05 11:25:00,31.4,25.3,30.26,North,32767,0.0,0.0,78,0.00,,,0.01,Wunderground v.1.13,2013-01-05 16:25:00,
2013-01-05 11:31:00,30.8,24.4,30.24,North,360,0.0,0.0,77,0.00,,,0.01,Wunderground v.1.13,2013-01-05 16:31:00,
2013-01-05 11:37:00,31.9,25.5,30.24,North,32767,0.0,0.0,77,0.00,,,0.01,Wunderground v.1.13,2013-01-05 16:37:00,
2013-01-05 11:42:00,32.3,25.6,30.24,North,32767,0.0,0.0,76,0.00,,,0.01,Wunderground v.1.13,2013-01-05 16:42:00,
2013-01-05 11:48:00,32.8,25.7,30.23,North,32767,0.0,0.0,75,0.00,,,0.01,Wunderground v.1.13,2013-01-05 16:48:00,
2013-01-05 11:53:00,33.4,26.0,30.23,North,32767,0.0,0.0,74,0.00,,,0.01,Wunderground v.1.13,2013-01-05 16:53:00,
2013-01-05 11:59:00,33.0,25.3,30.22,North,360,0.0,0.0,73,0.00,,,0.01,Wunderground v.1.13,2013-01-05 16:59:00,
2013-01-05 12:04:00,32.8,25.4,30.22,North,32767,0.0,0.0,74,0.00,,,0.01,Wunderground v.1.13,2013-01-05 17:04:00,
2013-01-05 12:10:00,33.5,26.1,30.22,North,32767,0.0,0.0,74,0.00,,,0.01,Wunderground v.1.13,2013-01-05 17:10:00,
2013-01-05 12:16:00,33.9,25.8,30.22,North,360,0.0,0.0,72,0.00,,,0.01,Wunderground v.1.13,2013-01-05 17:16:00,
2013-01-05 12:22:00,34.4,26.0,30.22,North,360,0.0,0.0,71,0.00,,,0.01,Wunderground v.1.13,2013-01-05 17:22:00,
2013-01-05 12:27:00,34.4,26.0,30.22,North,360,0.0,0.0,71,0.00,,,0.01,Wunderground v.1.13,2013-01-05 17:27:00,
2013-01-05 12:33:00,34.1,25.7,30.21,North,32767,0.0,0.0,71,0.00,,,0.01,Wunderground v.1.13,2013-01-05 17:33:00,
2013-01-05 12:39:00,34.4,26.0,30.21,North,32767,0.0,0.0,71,0.00,,,0.01,Wunderground v.1.13,2013-01-05 17:39:00,
2013-01-05 12:45:00,34.7,26.3,30.21,North,360,0.0,0.0,71,0.00,,,0.01,Wunderground v.1.13,2013-01-05 17:45:00,
2013-01-05 12:51:00,34.1,25.7,30.21,North,32767,0.0,0.0,71,0.00,,,0.01,Wunderground v.1.13,2013-01-05 17:51:00,
2013-01-05 12:56:00,34.1,26.3,30.21,North,32767,0.0,0.0,73,0.00,,,0.01,Wunderground v.1.13,2013-01-05 17:56:00,
2013-01-05 13:01:00,33.8,25.7,30.19,North,32767,0.0,0.0,72,0.00,,,0.01,Wunderground v.1.13,2013-01-05 18:01:00,
2013-01-05 13:07:00,33.9,26.2,30.19,North,32767,0.0,0.0,73,0.00,,,0.01,Wunderground v.1.13,2013-01-05 18:07:00,
2013-01-05 13:13:00,34.1,26.3,30.17,North,32767,0.0,0.0,73,0.00,,,0.01,Wunderground v.1.13,2013-01-05 18:13:00,
2013-01-05 13:18:00,34.4,26.6,30.17,North,32767,0.0,0.0,73,0.00,,,0.01,Wunderground v.1.13,2013-01-05 18:18:00,
2013-01-05 13:23:00,34.4,26.3,30.17,North,32767,0.0,0.0,72,0.00,,,0.01,Wunderground v.1.13,2013-01-05 18:23:00,
2013-01-05 13:29:00,34.4,26.3,30.16,North,32767,0.0,0.0,72,0.00,,,0.01,Wunderground v.1.13,2013-01-05 18:29:00,
2013-01-05 13:35:00,34.9,27.1,30.16,North,32767,0.0,0.0,73,0.00,,,0.01,Wunderground v.1.13,2013-01-05 18:35:00,
2013-01-05 13:41:00,35.2,27.1,30.16,North,360,0.0,0.0,72,0.00,,,0.01,Wunderground v.1.13,2013-01-05 18:41:00,
2013-01-05 13:47:00,35.1,27.0,30.15,North,360,0.0,0.0,72,0.00,,,0.01,Wunderground v.1.13,2013-01-05 18:47:00,
2013-01-05 13:52:00,35.3,27.2,30.15,North,360,0.0,0.0,72,0.00,,,0.01,Wunderground v.1.13,2013-01-05 18:52:00,
2013-01-05 13:57:00,35.8,27.7,30.15,North,360,0.0,0.0,72,0.00,,,0.01,Wunderground v.1.13,2013-01-05 18:57:00,
2013-01-05 14:03:00,36.2,27.7,30.15,North,360,0.0,0.0,71,0.00,,,0.01,Wunderground v.1.13,2013-01-05 19:03:00,
2013-01-05 14:09:00,36.8,27.9,30.15,North,32767,0.0,0.0,70,0.00,,,0.01,Wunderground v.1.13,2013-01-05 19:09:00,
2013-01-05 14:15:00,36.7,27.8,30.14,North,360,0.0,0.0,70,0.00,,,0.01,Wunderground v.1.13,2013-01-05 19:15:00,
2013-01-05 14:21:00,37.0,28.1,30.14,North,32767,0.0,0.0,70,0.00,,,0.01,Wunderground v.1.13,2013-01-05 19:21:00,
2013-01-05 14:27:00,37.1,28.2,30.14,North,360,0.0,0.0,70,0.00,,,0.01,Wunderground v.1.13,2013-01-05 19:27:00,
2013-01-05 14:32:00,37.2,28.0,30.12,North,360,0.0,0.0,69,0.00,,,0.01,Wunderground v.1.13,2013-01-05 19:32:00,
2013-01-05 14:37:00,37.4,28.2,30.12,North,360,0.0,0.0,69,0.00,,,0.01,Wunderground v.1.13,2013-01-05 19:37:00,
2013-01-05 14:43:00,38.1,28.5,30.11,North,32767,0.0,0.0,68,0.00,,,0.01,Wunderground v.1.13,2013-01-05 19:43:00,
2013-01-05 14:48:00,38.5,28.5,30.11,North,32767,0.0,0.0,67,0.00,,,0.01,Wunderground v.1.13,2013-01-05 19:48:00,
2013-01-05 14:53:00,38.8,28.8,30.11,North,32767,0.0,0.0,67,0.00,,,0.01,Wunderground v.1.13,2013-01-05 19:53:00,
2013-01-05 14:59:00,38.3,27.9,30.12,North,32767,0.0,0.0,66,0.00,,,0.01,Wunderground v.1.13,2013-01-05 19:59:00,
2013-01-05 15:05:00,37.4,27.8,30.12,North,32767,0.0,0.0,68,0.00,,,0.01,Wunderground v.1.13,2013-01-05 20:05:00,
2013-01-05 15:10:00,37.4,28.2,30.12,North,32767,0.0,0.0,69,0.00,,,0.01,Wunderground v.1.13,2013-01-05 20:10:00,
2013-01-05 15:16:00,37.4,28.2,30.11,North,32767,0.0,0.0,69,0.00,,,0.01,Wunderground v.1.13,2013-01-05 20:16:00,
2013-01-05 15:22:00,37.1,28.2,30.11,North,32767,0.0,0.0,70,0.00,,,0.01,Wunderground v.1.13,2013-01-05 20:22:00,
2013-01-05 15:27:00,37.0,28.5,30.11,North,360,0.0,0.0,71,0.00,,,0.01,Wunderground v.1.13,2013-01-05 20:27:00,
2013-01-05 15:32:00,36.8,28.3,30.12,North,360,0.0,0.0,71,0.00,,,0.01,Wunderground v.1.13,2013-01-05 20:32:00,
2013-01-05 15:37:00,36.6,28.1,30.12,North,360,0.0,0.0,71,0.00,,,0.01,Wunderground v.1.13,2013-01-05 20:37:00,
2013-01-05 15:43:00,36.6,28.4,30.11,North,32767,0.0,0.0,72,0.00,,,0.01,Wunderground v.1.13,2013-01-05 20:43:00,
2013-01-05 15:48:00,36.6,28.4,30.11,North,360,0.0,0.0,72,0.00,,,0.01,Wunderground v.1.13,2013-01-05 20:48:00,
2013-01-05 15:54:00,36.5,28.3,30.11,North,32767,0.0,0.0,72,0.00,,,0.01,Wunderground v.1.13,2013-01-05 20:54:00,
2013-01-05 16:00:00,36.5,28.7,30.11,North,32767,0.0,0.0,73,0.00,,,0.01,Wunderground v.1.13,2013-01-05 21:00:00,
2013-01-05 16:05:00,36.4,28.6,30.11,North,32767,0.0,0.0,73,0.00,,,0.01,Wunderground v.1.13,2013-01-05 21:05:00,
2013-01-05 16:11:00,36.4,28.6,30.11,North,360,0.0,0.0,73,0.00,,,0.01,Wunderground v.1.13,2013-01-05 21:11:00,
2013-01-05 16:17:00,36.4,28.6,30.11,North,360,0.0,0.0,73,0.00,,,0.01,Wunderground v.1.13,2013-01-05 21:17:00,
2013-01-05 16:23:00,36.4,28.6,30.11,North,32767,0.0,0.0,73,0.00,,,0.01,Wunderground v.1.13,2013-01-05 21:23:00,
2013-01-05 16:28:00,36.5,28.7,30.11,North,32767,0.0,0.0,73,0.00,,,0.01,Wunderground v.1.13,2013-01-05 21:28:00,
2013-01-05 16:33:00,36.5,28.7,30.11,North,360,0.0,0.0,73,0.00,,,0.01,Wunderground v.1.13,2013-01-05 21:33:00,
2013-01-05 16:39:00,36.2,28.4,30.11,North,32767,0.0,0.0,73,0.00,,,0.01,Wunderground v.1.13,2013-01-05 21:39:00,
2013-01-05 16:44:00,35.9,28.1,30.11,North,360,0.0,0.0,73,0.00,,,0.01,Wunderground v.1.13,2013-01-05 21:44:00,
2013-01-05 16:50:00,35.7,27.9,30.11,North,32767,0.0,0.0,73,0.00,,,0.01,Wunderground v.1.13,2013-01-05 21:50:00,
2013-01-05 16:56:00,35.6,27.8,30.11,North,32767,0.0,0.0,73,0.00,,,0.01,Wunderground v.1.13,2013-01-05 21:56:00,
2013-01-05 17:02:00,35.5,27.7,30.11,North,32767,0.0,0.0,73,0.00,,,0.01,Wunderground v.1.13,2013-01-05 22:02:00,
2013-01-05 17:07:00,35.4,27.6,30.11,North,32767,0.0,0.0,73,0.00,,,0.01,Wunderground v.1.13,2013-01-05 22:07:00,
2013-01-05 17:12:00,35.2,27.7,30.11,North,32767,0.0,0.0,74,0.00,,,0.01,Wunderground v.1.13,2013-01-05 22:12:00,
2013-01-05 17:18:00,35.1,27.6,30.09,North,32767,0.0,0.0,74,0.00,,,0.01,Wunderground v.1.13,2013-01-05 22:18:00,
2013-01-05 17:24:00,35.0,27.5,30.09,North,360,0.0,0.0,74,0.00,,,0.01,Wunderground v.1.13,2013-01-05 22:24:00,
2013-01-05 17:29:00,34.8,27.4,30.09,North,32767,0.0,0.0,74,0.00,,,0.01,Wunderground v.1.13,2013-01-05 22:29:00,
2013-01-05 17:35:00,34.7,27.6,30.09,North,360,0.0,0.0,75,0.00,,,0.01,Wunderground v.1.13,2013-01-05 22:35:00,
2013-01-05 17:41:00,34.5,27.4,30.09,North,32767,0.0,0.0,75,0.00,,,0.01,Wunderground v.1.13,2013-01-05 22:41:00,
2013-01-05 17:47:00,34.5,27.4,30.10,North,32767,0.0,0.0,75,0.00,,,0.01,Wunderground v.1.13,2013-01-05 22:47:00,
2013-01-05 17:53:00,34.4,27.6,30.10,North,32767,0.0,0.0,76,0.00,,,0.01,Wunderground v.1.13,2013-01-05 22:53:00,
2013-01-05 17:59:00,34.4,27.6,30.10,North,32767,0.0,0.0,76,0.00,,,0.01,Wunderground v.1.13,2013-01-05 22:59:00,
2013-01-05 18:04:00,34.4,27.9,30.10,North,32767,0.0,0.0,77,0.00,,,0.01,Wunderground v.1.13,2013-01-05 23:04:00,
2013-01-05 18:10:00,34.2,27.7,30.10,North,32767,0.0,0.0,77,0.00,,,0.01,Wunderground v.1.13,2013-01-05 23:10:00,
2013-01-05 18:16:00,34.0,27.9,30.11,North,32767,0.0,0.0,78,0.00,,,0.01,Wunderground v.1.13,2013-01-05 23:16:00,
2013-01-05 18:22:00,33.5,28.3,30.11,North,32767,0.0,0.0,81,0.00,,,0.01,Wunderground v.1.13,2013-01-05 23:22:00,
2013-01-05 18:27:00,33.0,28.7,30.11,North,360,0.0,0.0,84,0.00,,,0.01,Wunderground v.1.13,2013-01-05 23:27:00,
2013-01-05 18:33:00,32.5,28.8,30.10,North,360,0.0,0.0,86,0.00,,,0.01,Wunderground v.1.13,2013-01-05 23:33:00,
2013-01-05 18:38:00,32.4,29.2,30.10,North,360,0.0,0.0,88,0.00,,,0.01,Wunderground v.1.13,2013-01-05 23:38:00,
2013-01-05 18:44:00,32.3,29.1,30.10,North,32767,0.0,0.0,88,0.00,,,0.01,Wunderground v.1.13,2013-01-05 23:44:00,
2013-01-05 18:50:00,32.3,29.4,30.10,North,32767,0.0,0.0,89,0.00,,,0.01,Wunderground v.1.13,2013-01-05 23:50:00,
2013-01-05 18:56:00,32.3,29.4,30.10,North,360,0.0,0.0,89,0.00,,,0.01,Wunderground v.1.13,2013-01-05 23:56:00,
2013-01-05 19:02:00,32.4,29.5,30.10,North,360,0.0,0.0,89,0.00,,,0.01,Wunderground v.1.13,2013-01-06 00:02:00,
2013-01-05 19:07:00,32.4,29.8,30.10,North,32767,0.0,0.0,90,0.00,,,0.01,Wunderground v.1.13,2013-01-06 00:07:00,
2013-01-05 19:13:00,32.5,29.9,30.10,North,32767,0.0,0.0,90,0.00,,,0.01,Wunderground v.1.13,2013-01-06 00:13:00,
2013-01-05 19:19:00,32.5,30.2,30.10,North,32767,0.0,0.0,91,0.00,,,0.01,Wunderground v.1.13,2013-01-06 00:19:00,
2013-01-05 19:25:00,32.4,30.1,30.10,North,32767,0.0,0.0,91,0.00,,,0.01,Wunderground v.1.13,2013-01-06 00:25:00,
2013-01-05 19:30:00,32.3,30.0,30.09,North,360,0.0,0.0,91,0.00,,,0.01,Wunderground v.1.13,2013-01-06 00:30:00,
2013-01-05 19:36:00,32.3,30.2,30.09,North,360,0.0,0.0,92,0.00,,,0.01,Wunderground v.1.13,2013-01-06 00:36:00,
2013-01-05 19:42:00,32.3,30.2,30.09,North,32767,0.0,0.0,92,0.00,,,0.01,Wunderground v.1.13,2013-01-06 00:42:00,
2013-01-05 19:48:00,32.3,30.5,30.09,North,32767,0.0,0.0,93,0.00,,,0.01,Wunderground v.1.13,2013-01-06 00:48:00,
2013-01-05 19:54:00,32.3,30.5,30.09,North,360,0.0,0.0,93,0.00,,,0.01,Wunderground v.1.13,2013-01-06 00:54:00,
2013-01-05 19:59:00,32.3,30.5,30.09,North,32767,0.0,0.0,93,0.00,,,0.01,Wunderground v.1.13,2013-01-06 00:59:00,
2013-01-05 20:05:00,32.4,30.6,30.09,North,32767,0.0,0.0,93,0.00,,,0.01,Wunderground v.1.13,2013-01-06 01:05:00,
2013-01-05 20:10:00,32.4,30.9,30.09,North,360,0.0,0.0,94,0.00,,,0.01,Wunderground v.1.13,2013-01-06 01:10:00,
2013-01-05 20:16:00,32.4,30.9,30.08,North,32767,0.0,0.0,94,0.00,,,0.01,Wunderground v.1.13,2013-01-06 01:16:00,
2013-01-05 20:21:00,32.4,30.9,30.08,North,32767,0.0,0.0,94,0.00,,,0.01,Wunderground v.1.13,2013-01-06 01:21:00,
2013-01-05 20:27:00,32.4,30.9,30.08,North,360,0.0,0.0,94,0.00,,,0.01,Wunderground v.1.13,2013-01-06 01:27:00,
2013-01-05 20:33:00,32.4,30.9,30.08,North,32767,0.0,0.0,94,0.00,,,0.01,Wunderground v.1.13,2013-01-06 01:33:00,
2013-01-05 20:39:00,32.5,31.0,30.08,North,32767,0.0,0.0,94,0.00,,,0.01,Wunderground v.1.13,2013-01-06 01:39:00,
2013-01-05 20:44:00,32.5,31.0,30.07,North,32767,0.0,0.0,94,0.00,,,0.01,Wunderground v.1.13,2013-01-06 01:44:00,
2013-01-05 20:50:00,32.6,31.1,30.07,North,32767,0.0,0.0,94,0.00,,,0.01,Wunderground v.1.13,2013-01-06 01:50:00,
2013-01-05 20:56:00,32.6,31.1,30.07,North,32767,0.0,0.0,94,0.00,,,0.01,Wunderground v.1.13,2013-01-06 01:56:00,
2013-01-05 21:01:00,32.6,31.1,30.07,North,32767,0.0,0.0,94,0.00,,,0.01,Wunderground v.1.13,2013-01-06 02:01:00,
2013-01-05 21:07:00,32.6,31.1,30.07,North,32767,0.0,0.0,94,0.00,,,0.01,Wunderground v.1.13,2013-01-06 02:07:00,
2013-01-05 21:13:00,32.7,31.2,30.06,North,32767,0.0,0.0,94,0.00,,,0.01,Wunderground v.1.13,2013-01-06 02:13:00,
2013-01-05 21:18:00,32.6,31.1,30.06,North,360,0.0,0.0,94,0.00,,,0.01,Wunderground v.1.13,2013-01-06 02:18:00,
2013-01-05 21:24:00,32.6,31.1,30.06,North,360,0.0,0.0,94,0.00,,,0.01,Wunderground v.1.13,2013-01-06 02:24:00,
2013-01-05 21:29:00,32.6,31.1,30.06,North,360,0.0,0.0,94,0.00,,,0.01,Wunderground v.1.13,2013-01-06 02:29:00,
2013-01-05 21:35:00,32.6,31.1,30.06,North,360,0.0,0.0,94,0.00,,,0.01,Wunderground v.1.13,2013-01-06 02:35:00,
2013-01-05 21:41:00,32.7,31.2,30.06,North,32767,0.0,0.0,94,0.00,,,0.01,Wunderground v.1.13,2013-01-06 02:41:00,
2013-01-05 21:47:00,32.8,31.3,30.06,North,32767,0.0,0.0,94,0.00,,,0.01,Wunderground v.1.13,2013-01-06 02:47:00,
2013-01-05 21:52:00,32.9,31.4,30.06,North,32767,0.0,0.0,94,0.00,,,0.01,Wunderground v.1.13,2013-01-06 02:52:00,
2013-01-05 21:58:00,32.9,31.4,30.06,North,32767,0.0,0.0,94,0.00,,,0.01,Wunderground v.1.13,2013-01-06 02:58:00,
2013-01-05 22:04:00,32.9,31.4,30.06,North,360,0.0,0.0,94,0.00,,,0.01,Wunderground v.1.13,2013-01-06 03:04:00,
2013-01-05 22:10:00,32.9,31.4,30.06,North,360,0.0,0.0,94,0.00,,,0.01,Wunderground v.1.13,2013-01-06 03:10:00,
2013-01-05 22:16:00,33.0,31.5,30.05,North,32767,0.0,0.0,94,0.00,,,0.01,Wunderground v.1.13,2013-01-06 03:16:00,
2013-01-05 22:22:00,33.1,31.6,30.05,North,32767,0.0,0.0,94,0.00,,,0.01,Wunderground v.1.13,2013-01-06 03:22:00,
2013-01-05 22:28:00,33.2,31.7,30.05,North,360,0.0,0.0,94,0.00,,,0.01,Wunderground v.1.13,2013-01-06 03:28:00,
2013-01-05 22:34:00,33.2,31.7,30.05,North,32767,0.0,0.0,94,0.00,,,0.01,Wunderground v.1.13,2013-01-06 03:34:00,
2013-01-05 22:40:00,33.2,31.7,30.05,North,32767,0.0,0.0,94,0.00,,,0.01,Wunderground v.1.13,2013-01-06 03:40:00,
2013-01-05 22:46:00,33.3,31.8,30.04,North,32767,0.0,0.0,94,0.00,,,0.01,Wunderground v.1.13,2013-01-06 03:46:00,
2013-01-05 22:52:00,33.3,31.8,30.04,North,32767,0.0,0.0,94,0.00,,,0.01,Wunderground v.1.13,2013-01-06 03:52:00,
2013-01-05 22:58:00,33.4,31.9,30.04,North,32767,0.0,0.0,94,0.00,,,0.01,Wunderground v.1.13,2013-01-06 03:58:00,
2013-01-05 23:04:00,33.6,32.1,30.04,North,32767,0.0,0.0,94,0.00,,,0.01,Wunderground v.1.13,2013-01-06 04:04:00,
2013-01-05 23:10:00,33.7,32.2,30.04,North,32767,0.0,0.0,94,0.00,,,0.01,Wunderground v.1.13,2013-01-06 04:10:00,
2013-01-05 23:15:00,33.7,32.2,30.02,North,32767,0.0,0.0,94,0.00,,,0.01,Wunderground v.1.13,2013-01-06 04:15:00,
2013-01-05 23:21:00,33.7,32.2,30.02,North,32767,0.0,0.0,94,0.00,,,0.01,Wunderground v.1.13,2013-01-06 04:21:00,
2013-01-05 23:26:00,33.8,32.3,30.02,North,32767,0.0,0.0,94,0.00,,,0.01,Wunderground v.1.13,2013-01-06 04:26:00,
2013-01-05 23:32:00,33.9,32.1,30.02,North,32767,0.0,0.0,93,0.00,,,0.01,Wunderground v.1.13,2013-01-06 04:32:00,
2013-01-05 23:37:00,34.0,32.2,30.02,North,32767,0.0,0.0,93,0.00,,,0.01,Wunderground v.1.13,2013-01-06 04:37:00,
2013-01-05 23:43:00,34.1,32.0,30.02,North,360,0.0,0.0,92,0.00,,,0.01,Wunderground v.1.13,2013-01-06 04:43:00,
2013-01-05 23:49:00,34.1,32.0,30.02,North,360,0.0,0.0,92,0.00,,,0.01,Wunderground v.1.13,2013-01-06 04:49:00,
2013-01-05 23:55:00,34.3,32.2,30.02,North,360,0.0,0.0,92,0.00,,,0.01,Wunderground v.1.13,2013-01-06 04:55:00,